sensor_id;sensor_type;location;lat;lon;timestamp;pressure;altitude;pressure_sealevel;temperature;humidity
39773;BME280;25451;51.960;6.250;2023-11-21T00:00:20;100893.38;;;9.20;86.59
39773;BME280;25451;51.960;6.250;2023-11-21T00:02:45;100907.34;;;9.18;86.55
39773;BME280;25451;51.960;6.250;2023-11-21T00:05:12;100904.59;;;9.18;86.57
39773;BME280;25451;51.960;6.250;2023-11-21T00:07:40;100892.38;;;9.14;86.25
39773;BME280;25451;51.960;6.250;2023-11-21T00:10:06;100908.09;;;9.14;86.50
39773;BME280;25451;51.960;6.250;2023-11-21T00:12:32;100901.38;;;9.10;86.53
39773;BME280;25451;51.960;6.250;2023-11-21T00:14:58;100907.94;;;9.09;86.47
39773;BME280;25451;51.960;6.250;2023-11-21T00:17:23;100907.94;;;9.09;86.80
39773;BME280;25451;51.960;6.250;2023-11-21T00:19:49;100904.56;;;9.07;86.40
39773;BME280;25451;51.960;6.250;2023-11-21T00:22:15;100907.81;;;9.04;86.61
39773;BME280;25451;51.960;6.250;2023-11-21T00:24:41;100902.75;;;9.01;86.51
39773;BME280;25451;51.960;6.250;2023-11-21T00:27:06;100905.50;;;9.01;86.59
39773;BME280;25451;51.960;6.250;2023-11-21T00:29:31;100903.19;;;8.98;86.78
39773;BME280;25451;51.960;6.250;2023-11-21T00:31:57;100909.78;;;8.97;86.69
39773;BME280;25451;51.960;6.250;2023-11-21T00:34:23;100908.34;;;8.94;86.51
39773;BME280;25451;51.960;6.250;2023-11-21T00:36:48;100913.47;;;8.91;86.73
39773;BME280;25451;51.960;6.250;2023-11-21T00:39:13;100915.38;;;8.90;86.76
39773;BME280;25451;51.960;6.250;2023-11-21T00:41:39;100915.63;;;8.89;86.74
39773;BME280;25451;51.960;6.250;2023-11-21T00:44:04;100911.16;;;8.88;86.72
39773;BME280;25451;51.960;6.250;2023-11-21T00:46:29;100910.19;;;8.82;86.75
39773;BME280;25451;51.960;6.250;2023-11-21T00:48:55;100911.88;;;8.83;86.87
39773;BME280;25451;51.960;6.250;2023-11-21T00:51:21;100916.28;;;8.84;86.72
39773;BME280;25451;51.960;6.250;2023-11-21T00:53:47;100919.91;;;8.85;86.57
39773;BME280;25451;51.960;6.250;2023-11-21T00:56:13;100918.22;;;8.84;86.71
39773;BME280;25451;51.960;6.250;2023-11-21T00:58:39;100918.69;;;8.81;86.79
39773;BME280;25451;51.960;6.250;2023-11-21T01:01:07;100929.44;;;8.82;86.86
39773;BME280;25451;51.960;6.250;2023-11-21T01:03:33;100927.53;;;8.83;86.98
39773;BME280;25451;51.960;6.250;2023-11-21T01:05:58;100934.09;;;8.82;86.53
39773;BME280;25451;51.960;6.250;2023-11-21T01:08:24;100943.44;;;8.81;86.81
39773;BME280;25451;51.960;6.250;2023-11-21T01:10:49;100940.69;;;8.81;86.92
39773;BME280;25451;51.960;6.250;2023-11-21T01:13:14;100946.19;;;8.81;86.86
39773;BME280;25451;51.960;6.250;2023-11-21T01:15:40;100963.56;;;8.81;86.86
39773;BME280;25451;51.960;6.250;2023-11-21T01:18:06;100957.81;;;8.83;86.55
39773;BME280;25451;51.960;6.250;2023-11-21T01:20:31;100958.66;;;8.83;86.85
39773;BME280;25451;51.960;6.250;2023-11-21T01:22:57;100962.72;;;8.81;86.72
39773;BME280;25451;51.960;6.250;2023-11-21T01:25:22;100950.84;;;8.80;86.46
39773;BME280;25451;51.960;6.250;2023-11-21T01:27:48;100964.19;;;8.83;86.56
39773;BME280;25451;51.960;6.250;2023-11-21T01:30:13;100972.63;;;8.82;86.51
39773;BME280;25451;51.960;6.250;2023-11-21T01:32:39;100977.69;;;8.85;86.41
39773;BME280;25451;51.960;6.250;2023-11-21T01:35:05;100980.91;;;8.82;86.51
39773;BME280;25451;51.960;6.250;2023-11-21T01:37:32;100987.00;;;8.84;86.72
39773;BME280;25451;51.960;6.250;2023-11-21T01:39:58;100980.06;;;8.81;86.66
39773;BME280;25451;51.960;6.250;2023-11-21T01:42:24;100978.13;;;8.82;86.43
39773;BME280;25451;51.960;6.250;2023-11-21T01:44:49;100986.41;;;8.82;86.56
39773;BME280;25451;51.960;6.250;2023-11-21T01:47:15;100986.19;;;8.83;86.31
39773;BME280;25451;51.960;6.250;2023-11-21T01:49:43;100976.00;;;8.84;86.48
39773;BME280;25451;51.960;6.250;2023-11-21T01:52:09;100984.25;;;8.84;86.78
39773;BME280;25451;51.960;6.250;2023-11-21T01:54:36;100981.50;;;8.84;86.68
39773;BME280;25451;51.960;6.250;2023-11-21T01:57:04;100979.59;;;8.84;86.72
39773;BME280;25451;51.960;6.250;2023-11-21T01:59:34;100987.63;;;8.86;86.55
39773;BME280;25451;51.960;6.250;2023-11-21T02:02:04;100988.72;;;8.85;86.46
39773;BME280;25451;51.960;6.250;2023-11-21T02:04:35;100981.50;;;8.84;86.66
39773;BME280;25451;51.960;6.250;2023-11-21T02:07:02;100981.06;;;8.87;86.52
39773;BME280;25451;51.960;6.250;2023-11-21T02:09:30;100976.84;;;8.84;86.39
39773;BME280;25451;51.960;6.250;2023-11-21T02:11:56;100979.38;;;8.86;86.45
39773;BME280;25451;51.960;6.250;2023-11-21T02:14:24;100986.56;;;8.87;86.36
39773;BME280;25451;51.960;6.250;2023-11-21T02:16:50;100995.66;;;8.87;86.56
39773;BME280;25451;51.960;6.250;2023-11-21T02:19:19;100992.06;;;8.87;86.89
39773;BME280;25451;51.960;6.250;2023-11-21T02:21:49;100992.06;;;8.87;86.72
39773;BME280;25451;51.960;6.250;2023-11-21T02:24:15;100992.69;;;8.89;86.52
39773;BME280;25451;51.960;6.250;2023-11-21T02:26:42;100995.88;;;8.86;86.36
39773;BME280;25451;51.960;6.250;2023-11-21T02:29:07;100990.97;;;8.88;86.42
39773;BME280;25451;51.960;6.250;2023-11-21T02:31:35;100992.06;;;8.87;86.57
39773;BME280;25451;51.960;6.250;2023-11-21T02:34:02;100992.69;;;8.89;86.56
39773;BME280;25451;51.960;6.250;2023-11-21T02:36:28;100989.09;;;8.88;86.42
39773;BME280;25451;51.960;6.250;2023-11-21T02:38:53;100993.13;;;8.86;86.77
39773;BME280;25451;51.960;6.250;2023-11-21T02:41:18;100993.13;;;8.86;86.68
39773;BME280;25451;51.960;6.250;2023-11-21T02:43:44;100987.63;;;8.86;86.24
39773;BME280;25451;51.960;6.250;2023-11-21T02:46:09;100995.88;;;8.86;86.59
39773;BME280;25451;51.960;6.250;2023-11-21T02:48:34;101004.97;;;8.86;86.61
39773;BME280;25451;51.960;6.250;2023-11-21T02:51:01;100990.59;;;8.84;86.93
39773;BME280;25451;51.960;6.250;2023-11-21T02:53:26;100992.50;;;8.84;86.82
39773;BME280;25451;51.960;6.250;2023-11-21T02:55:51;100994.22;;;8.85;86.72
39773;BME280;25451;51.960;6.250;2023-11-21T02:58:17;100989.75;;;8.84;86.39
39773;BME280;25451;51.960;6.250;2023-11-21T03:00:42;100994.81;;;8.87;86.78
39773;BME280;25451;51.960;6.250;2023-11-21T03:03:07;101003.69;;;8.89;86.57
39773;BME280;25451;51.960;6.250;2023-11-21T03:05:33;101004.97;;;8.86;86.57
39773;BME280;25451;51.960;6.250;2023-11-21T03:08:00;101003.69;;;8.89;86.61
39773;BME280;25451;51.960;6.250;2023-11-21T03:10:25;101009.19;;;8.89;86.39
39773;BME280;25451;51.960;6.250;2023-11-21T03:12:51;101016.97;;;8.92;86.42
39773;BME280;25451;51.960;6.250;2023-11-21T03:15:16;101014.22;;;8.92;86.83
39773;BME280;25451;51.960;6.250;2023-11-21T03:17:41;101020.59;;;8.92;86.66
39773;BME280;25451;51.960;6.250;2023-11-21T03:20:07;101018.06;;;8.91;86.46
39773;BME280;25451;51.960;6.250;2023-11-21T03:22:36;101026.69;;;8.94;86.84
39773;BME280;25451;51.960;6.250;2023-11-21T03:25:01;101020.34;;;8.94;86.71
39773;BME280;25451;51.960;6.250;2023-11-21T03:27:26;101019.06;;;8.96;86.46
39773;BME280;25451;51.960;6.250;2023-11-21T03:29:52;101015.44;;;8.96;86.71
39773;BME280;25451;51.960;6.250;2023-11-21T03:32:17;101026.03;;;8.99;86.83
39773;BME280;25451;51.960;6.250;2023-11-21T03:35:12;101034.03;;;9.00;86.57
39773;BME280;25451;51.960;6.250;2023-11-21T03:37:37;101034.88;;;9.01;86.81
39773;BME280;25451;51.960;6.250;2023-11-21T03:40:07;101034.88;;;9.01;86.74
39773;BME280;25451;51.960;6.250;2023-11-21T03:42:33;101035.50;;;9.03;86.62
39773;BME280;25451;51.960;6.250;2023-11-21T03:44:58;101034.44;;;9.04;86.81
39773;BME280;25451;51.960;6.250;2023-11-21T03:47:25;101034.22;;;9.05;86.72
39773;BME280;25451;51.960;6.250;2023-11-21T03:49:51;101036.97;;;9.05;86.51
39773;BME280;25451;51.960;6.250;2023-11-21T03:52:16;101042.22;;;9.07;86.48
39773;BME280;25451;51.960;6.250;2023-11-21T03:54:41;101039.03;;;9.10;86.71
39773;BME280;25451;51.960;6.250;2023-11-21T03:57:08;101042.59;;;9.10;86.73
39773;BME280;25451;51.960;6.250;2023-11-21T03:59:34;101033.28;;;9.11;86.68
39773;BME280;25451;51.960;6.250;2023-11-21T04:01:59;101040.47;;;9.12;86.60
39773;BME280;25451;51.960;6.250;2023-11-21T04:04:25;101043.00;;;9.14;86.80
39773;BME280;25451;51.960;6.250;2023-11-21T04:06:50;101036.41;;;9.15;86.64
39773;BME280;25451;51.960;6.250;2023-11-21T04:09:17;101036.41;;;9.15;86.77
39773;BME280;25451;51.960;6.250;2023-11-21T04:11:42;101036.16;;;9.16;86.65
39773;BME280;25451;51.960;6.250;2023-11-21T04:14:08;101048.66;;;9.19;86.48
39773;BME280;25451;51.960;6.250;2023-11-21T04:16:34;101047.59;;;9.20;86.63
39773;BME280;25451;51.960;6.250;2023-11-21T04:18:59;101048.22;;;9.22;86.72
39773;BME280;25451;51.960;6.250;2023-11-21T04:21:25;101051.78;;;9.23;86.92
39773;BME280;25451;51.960;6.250;2023-11-21T04:23:50;101057.06;;;9.24;86.77
39773;BME280;25451;51.960;6.250;2023-11-21T04:26:16;101068.91;;;9.25;86.67
39773;BME280;25451;51.960;6.250;2023-11-21T04:28:41;101065.34;;;9.24;86.68
39773;BME280;25451;51.960;6.250;2023-11-21T04:31:06;101078.03;;;9.25;86.45
39773;BME280;25451;51.960;6.250;2023-11-21T04:33:32;101073.97;;;9.28;86.76
39773;BME280;25451;51.960;6.250;2023-11-21T04:35:57;101072.06;;;9.28;86.79
39773;BME280;25451;51.960;6.250;2023-11-21T04:38:22;101079.84;;;9.31;86.81
39773;BME280;25451;51.960;6.250;2023-11-21T04:40:48;101079.84;;;9.31;86.65
39773;BME280;25451;51.960;6.250;2023-11-21T04:43:13;101079.84;;;9.31;86.75
39773;BME280;25451;51.960;6.250;2023-11-21T04:45:38;101084.31;;;9.32;86.91
39773;BME280;25451;51.960;6.250;2023-11-21T04:48:05;101082.16;;;9.34;87.04
39773;BME280;25451;51.960;6.250;2023-11-21T04:50:31;101089.34;;;9.35;86.89
39773;BME280;25451;51.960;6.250;2023-11-21T04:52:57;101093.19;;;9.34;86.98
39773;BME280;25451;51.960;6.250;2023-11-21T04:55:22;101094.84;;;9.35;86.73
39773;BME280;25451;51.960;6.250;2023-11-21T04:57:47;101111.13;;;9.37;86.88
39773;BME280;25451;51.960;6.250;2023-11-21T05:00:13;101100.13;;;9.37;86.80
39773;BME280;25451;51.960;6.250;2023-11-21T05:02:40;101111.53;;;9.40;87.04
39773;BME280;25451;51.960;6.250;2023-11-21T05:05:06;101102.44;;;9.40;86.88
39773;BME280;25451;51.960;6.250;2023-11-21T05:07:33;101103.50;;;9.39;87.12
39773;BME280;25451;51.960;6.250;2023-11-21T05:10:00;101115.97;;;9.41;86.93
39773;BME280;25451;51.960;6.250;2023-11-21T05:12:31;101116.56;;;9.43;86.94
39773;BME280;25451;51.960;6.250;2023-11-21T05:14:59;101119.34;;;9.43;86.73
39773;BME280;25451;51.960;6.250;2023-11-21T05:17:24;101127.59;;;9.43;86.92
39773;BME280;25451;51.960;6.250;2023-11-21T05:19:49;101138.41;;;9.45;86.98
39773;BME280;25451;51.960;6.250;2023-11-21T05:22:14;101127.38;;;9.45;86.94
39773;BME280;25451;51.960;6.250;2023-11-21T05:24:40;101129.91;;;9.46;86.89
39773;BME280;25451;51.960;6.250;2023-11-21T05:27:05;101132.66;;;9.46;87.13
39773;BME280;25451;51.960;6.250;2023-11-21T05:29:30;101139.84;;;9.47;87.14
39773;BME280;25451;51.960;6.250;2023-11-21T05:31:56;101149.81;;;9.48;87.12
39773;BME280;25451;51.960;6.250;2023-11-21T05:34:21;101141.53;;;9.48;86.97
39773;BME280;25451;51.960;6.250;2023-11-21T05:36:49;101148.72;;;9.49;87.14
39773;BME280;25451;51.960;6.250;2023-11-21T05:39:14;101160.59;;;9.50;86.98
39773;BME280;25451;51.960;6.250;2023-11-21T05:41:42;101155.06;;;9.50;86.91
39773;BME280;25451;51.960;6.250;2023-11-21T05:44:07;101157.59;;;9.51;86.94
39773;BME280;25451;51.960;6.250;2023-11-21T05:46:34;101156.78;;;9.51;87.10
39773;BME280;25451;51.960;6.250;2023-11-21T05:48:59;101163.09;;;9.51;87.06
39773;BME280;25451;51.960;6.250;2023-11-21T05:51:25;101169.47;;;9.52;87.13
39773;BME280;25451;51.960;6.250;2023-11-21T05:53:50;101163.97;;;9.52;87.03
39773;BME280;25451;51.960;6.250;2023-11-21T05:56:15;101176.44;;;9.54;87.06
39773;BME280;25451;51.960;6.250;2023-11-21T05:58:41;101172.00;;;9.53;87.12
39773;BME280;25451;51.960;6.250;2023-11-21T06:01:06;101178.09;;;9.55;87.06
39773;BME280;25451;51.960;6.250;2023-11-21T06:03:34;101180.88;;;9.55;87.14
39773;BME280;25451;51.960;6.250;2023-11-21T06:05:59;101181.72;;;9.56;86.97
39773;BME280;25451;51.960;6.250;2023-11-21T06:08:24;101180.88;;;9.55;87.26
39773;BME280;25451;51.960;6.250;2023-11-21T06:10:50;101184.22;;;9.57;87.20
39773;BME280;25451;51.960;6.250;2023-11-21T06:13:15;101194.44;;;9.57;87.05
39773;BME280;25451;51.960;6.250;2023-11-21T06:15:40;101188.69;;;9.58;87.19
39773;BME280;25451;51.960;6.250;2023-11-21T06:18:06;101196.97;;;9.58;87.29
39773;BME280;25451;51.960;6.250;2023-11-21T06:20:35;101204.38;;;9.58;87.25
39773;BME280;25451;51.960;6.250;2023-11-21T06:23:02;101201.63;;;9.58;87.42
39773;BME280;25451;51.960;6.250;2023-11-21T06:25:28;101197.56;;;9.60;87.12
39773;BME280;25451;51.960;6.250;2023-11-21T06:27:54;101213.03;;;9.61;87.22
39773;BME280;25451;51.960;6.250;2023-11-21T06:30:19;101208.59;;;9.60;87.08
39773;BME280;25451;51.960;6.250;2023-11-21T06:32:45;101202.00;;;9.61;87.14
39773;BME280;25451;51.960;6.250;2023-11-21T06:35:14;101211.34;;;9.60;87.14
39773;BME280;25451;51.960;6.250;2023-11-21T06:37:40;101225.75;;;9.62;87.16
39773;BME280;25451;51.960;6.250;2023-11-21T06:40:06;101227.41;;;9.63;87.25
39773;BME280;25451;51.960;6.250;2023-11-21T06:42:32;101226.59;;;9.63;87.47
39773;BME280;25451;51.960;6.250;2023-11-21T06:44:58;101234.63;;;9.64;87.30
39773;BME280;25451;51.960;6.250;2023-11-21T06:47:24;101230.78;;;9.65;87.36
39773;BME280;25451;51.960;6.250;2023-11-21T06:49:55;101235.22;;;9.66;87.36
39773;BME280;25451;51.960;6.250;2023-11-21T06:52:20;101229.13;;;9.64;87.29
39773;BME280;25451;51.960;6.250;2023-11-21T06:54:48;101242.41;;;9.67;87.34
39773;BME280;25451;51.960;6.250;2023-11-21T06:57:14;101243.50;;;9.66;87.34
39773;BME280;25451;51.960;6.250;2023-11-21T06:59:40;101249.63;;;9.68;87.28
39773;BME280;25451;51.960;6.250;2023-11-21T07:02:05;101249.03;;;9.66;87.24
39773;BME280;25451;51.960;6.250;2023-11-21T07:04:32;101251.53;;;9.68;87.43
39773;BME280;25451;51.960;6.250;2023-11-21T07:06:57;101250.69;;;9.67;87.40
39773;BME280;25451;51.960;6.250;2023-11-21T07:09:23;101271.44;;;9.70;87.14
39773;BME280;25451;51.960;6.250;2023-11-21T07:11:48;101270.38;;;9.71;87.31
39773;BME280;25451;51.960;6.250;2023-11-21T07:14:15;101268.44;;;9.71;87.35
39773;BME280;25451;51.960;6.250;2023-11-21T07:16:40;101267.41;;;9.72;87.26
39773;BME280;25451;51.960;6.250;2023-11-21T07:19:06;101281.19;;;9.72;87.23
39773;BME280;25451;51.960;6.250;2023-11-21T07:21:33;101275.28;;;9.69;87.32
39773;BME280;25451;51.960;6.250;2023-11-21T07:24:00;101277.34;;;9.73;87.44
39773;BME280;25451;51.960;6.250;2023-11-21T07:26:26;101282.22;;;9.71;87.55
39773;BME280;25451;51.960;6.250;2023-11-21T07:28:51;101293.66;;;9.75;87.20
39773;BME280;25451;51.960;6.250;2023-11-21T07:31:16;101292.22;;;9.72;87.47
39773;BME280;25451;51.960;6.250;2023-11-21T07:33:42;101301.94;;;9.75;87.29
39773;BME280;25451;51.960;6.250;2023-11-21T07:36:07;101310.22;;;9.75;87.32
39773;BME280;25451;51.960;6.250;2023-11-21T07:38:33;101312.13;;;9.74;87.55
39773;BME280;25451;51.960;6.250;2023-11-21T07:40:58;101308.75;;;9.72;87.36
39773;BME280;25451;51.960;6.250;2023-11-21T07:43:26;101305.13;;;9.72;87.27
39773;BME280;25451;51.960;6.250;2023-11-21T07:45:51;101321.84;;;9.77;87.23
39773;BME280;25451;51.960;6.250;2023-11-21T07:48:17;101318.69;;;9.73;87.26
39773;BME280;25451;51.960;6.250;2023-11-21T07:50:42;101325.44;;;9.77;87.34
39773;BME280;25451;51.960;6.250;2023-11-21T07:53:07;101328.19;;;9.77;87.39
39773;BME280;25451;51.960;6.250;2023-11-21T07:55:33;101329.03;;;9.78;87.33
39773;BME280;25451;51.960;6.250;2023-11-21T07:57:58;101330.94;;;9.77;87.41
39773;BME280;25451;51.960;6.250;2023-11-21T08:00:24;101326.03;;;9.79;87.17
39773;BME280;25451;51.960;6.250;2023-11-21T08:02:49;101337.69;;;9.81;87.47
39773;BME280;25451;51.960;6.250;2023-11-21T08:05:14;101338.78;;;9.80;87.16
39773;BME280;25451;51.960;6.250;2023-11-21T08:07:40;101335.53;;;9.83;87.36
39773;BME280;25451;51.960;6.250;2023-11-21T08:10:06;101351.03;;;9.84;87.23
39773;BME280;25451;51.960;6.250;2023-11-21T08:12:31;101352.69;;;9.85;87.40
39773;BME280;25451;51.960;6.250;2023-11-21T08:14:57;101361.63;;;9.87;87.40
39773;BME280;25451;51.960;6.250;2023-11-21T08:17:22;101360.53;;;9.88;87.36
39773;BME280;25451;51.960;6.250;2023-11-21T08:19:48;101370.50;;;9.89;87.32
39773;BME280;25451;51.960;6.250;2023-11-21T08:22:17;101380.22;;;9.92;87.46
39773;BME280;25451;51.960;6.250;2023-11-21T08:24:46;101373.88;;;9.91;87.30
39773;BME280;25451;51.960;6.250;2023-11-21T08:27:12;101372.19;;;9.90;87.46
39773;BME280;25451;51.960;6.250;2023-11-21T08:29:42;101377.25;;;9.93;87.48
39773;BME280;25451;51.960;6.250;2023-11-21T08:32:07;101391.66;;;9.95;87.39
39773;BME280;25451;51.960;6.250;2023-11-21T08:34:32;101387.81;;;9.96;87.23
39773;BME280;25451;51.960;6.250;2023-11-21T08:36:58;101389.53;;;9.97;87.31
39773;BME280;25451;51.960;6.250;2023-11-21T08:39:23;101394.78;;;9.99;87.31
39773;BME280;25451;51.960;6.250;2023-11-21T08:41:50;101397.31;;;10.00;87.27
39773;BME280;25451;51.960;6.250;2023-11-21T08:44:16;101406.44;;;10.01;87.47
39773;BME280;25451;51.960;6.250;2023-11-21T08:46:43;101400.06;;;10.00;87.30
39773;BME280;25451;51.960;6.250;2023-11-21T08:49:11;101415.09;;;10.04;87.55
39773;BME280;25451;51.960;6.250;2023-11-21T08:51:37;101412.34;;;10.04;87.62
39773;BME280;25451;51.960;6.250;2023-11-21T08:54:02;101417.63;;;10.06;87.32
39773;BME280;25451;51.960;6.250;2023-11-21T08:56:29;101416.56;;;10.07;87.55
39773;BME280;25451;51.960;6.250;2023-11-21T08:58:55;101419.94;;;10.09;87.43
39773;BME280;25451;51.960;6.250;2023-11-21T09:01:20;101428.00;;;10.11;87.29
39773;BME280;25451;51.960;6.250;2023-11-21T09:03:46;101434.38;;;10.11;87.46
39773;BME280;25451;51.960;6.250;2023-11-21T09:06:12;101431.38;;;10.13;87.60
39773;BME280;25451;51.960;6.250;2023-11-21T09:08:39;101429.25;;;10.15;87.33
39773;BME280;25451;51.960;6.250;2023-11-21T09:11:04;101434.75;;;10.15;87.25
39773;BME280;25451;51.960;6.250;2023-11-21T09:13:30;101429.25;;;10.15;87.67
39773;BME280;25451;51.960;6.250;2023-11-21T09:15:56;101438.13;;;10.17;87.64
39773;BME280;25451;51.960;6.250;2023-11-21T09:18:21;101444.03;;;10.20;87.53
39773;BME280;25451;51.960;6.250;2023-11-21T09:20:46;101444.91;;;10.21;87.41
39773;BME280;25451;51.960;6.250;2023-11-21T09:23:12;101456.53;;;10.23;87.32
39773;BME280;25451;51.960;6.250;2023-11-21T09:25:37;101457.16;;;10.25;87.42
39773;BME280;25451;51.960;6.250;2023-11-21T09:28:04;101453.78;;;10.23;87.55
39773;BME280;25451;51.960;6.250;2023-11-21T09:30:33;101465.00;;;10.28;87.54
39773;BME280;25451;51.960;6.250;2023-11-21T09:32:59;101467.75;;;10.28;87.35
39773;BME280;25451;51.960;6.250;2023-11-21T09:35:24;101470.28;;;10.29;87.42
39773;BME280;25451;51.960;6.250;2023-11-21T09:37:49;101473.66;;;10.31;87.32
39773;BME280;25451;51.960;6.250;2023-11-21T09:40:20;101472.81;;;10.31;87.56
39773;BME280;25451;51.960;6.250;2023-11-21T09:43:07;101483.41;;;10.34;87.37
39773;BME280;25451;51.960;6.250;2023-11-21T09:45:38;101483.16;;;10.35;87.46
39773;BME280;25451;51.960;6.250;2023-11-21T09:48:04;101484.63;;;10.38;87.43
39773;BME280;25451;51.960;6.250;2023-11-21T09:50:32;101487.41;;;10.38;87.45
39773;BME280;25451;51.960;6.250;2023-11-21T09:53:19;101488.00;;;10.40;87.46
39773;BME280;25451;51.960;6.250;2023-11-21T09:55:51;101498.56;;;10.43;87.80
39773;BME280;25451;51.960;6.250;2023-11-21T09:58:18;101501.13;;;10.44;87.24
39773;BME280;25451;51.960;6.250;2023-11-21T10:00:49;101498.38;;;10.44;87.65
39773;BME280;25451;51.960;6.250;2023-11-21T10:03:17;101506.19;;;10.47;87.60
39773;BME280;25451;51.960;6.250;2023-11-21T10:05:43;101509.31;;;10.51;87.47
39773;BME280;25451;51.960;6.250;2023-11-21T10:08:11;101523.75;;;10.53;87.56
39773;BME280;25451;51.960;6.250;2023-11-21T10:10:37;101527.97;;;10.55;87.60
39773;BME280;25451;51.960;6.250;2023-11-21T10:13:04;101528.22;;;10.54;87.69
39773;BME280;25451;51.960;6.250;2023-11-21T10:15:34;101523.91;;;10.58;87.65
39773;BME280;25451;51.960;6.250;2023-11-21T10:18:03;101528.16;;;10.60;87.54
39773;BME280;25451;51.960;6.250;2023-11-21T10:20:31;101530.66;;;10.62;87.44
39773;BME280;25451;51.960;6.250;2023-11-21T10:22:58;101532.34;;;10.63;87.69
39773;BME280;25451;51.960;6.250;2023-11-21T10:25:24;101541.25;;;10.65;87.62
39773;BME280;25451;51.960;6.250;2023-11-21T10:27:58;101552.91;;;10.67;87.72
39773;BME280;25451;51.960;6.250;2023-11-21T10:30:37;101551.00;;;10.67;87.65
39773;BME280;25451;51.960;6.250;2023-11-21T10:33:03;101545.22;;;10.69;87.60
39773;BME280;25451;51.960;6.250;2023-11-21T10:35:39;101537.44;;;10.66;87.51
39773;BME280;25451;51.960;6.250;2023-11-21T10:38:05;101544.19;;;10.70;87.58
39773;BME280;25451;51.960;6.250;2023-11-21T10:40:30;101548.63;;;10.71;87.83
39773;BME280;25451;51.960;6.250;2023-11-21T10:43:06;101548.41;;;10.72;87.89
39773;BME280;25451;51.960;6.250;2023-11-21T10:45:31;101552.47;;;10.70;87.73
39773;BME280;25451;51.960;6.250;2023-11-21T10:47:57;101561.13;;;10.73;87.57
39773;BME280;25451;51.960;6.250;2023-11-21T10:50:23;101568.34;;;10.74;87.82
39773;BME280;25451;51.960;6.250;2023-11-21T10:52:48;101550.94;;;10.74;88.04
39773;BME280;25451;51.960;6.250;2023-11-21T10:55:18;101547.72;;;10.77;87.76
39773;BME280;25451;51.960;6.250;2023-11-21T10:57:48;101545.59;;;10.79;87.66
39773;BME280;25451;51.960;6.250;2023-11-21T11:00:15;101556.78;;;10.84;87.87
39773;BME280;25451;51.960;6.250;2023-11-21T11:02:41;101560.16;;;10.86;87.81
39773;BME280;25451;51.960;6.250;2023-11-21T11:05:07;101558.84;;;10.89;87.65
39773;BME280;25451;51.960;6.250;2023-11-21T11:07:37;101560.53;;;10.90;87.97
39773;BME280;25451;51.960;6.250;2023-11-21T11:10:06;101551.56;;;10.94;87.77
39773;BME280;25451;51.960;6.250;2023-11-21T11:12:34;101562.16;;;10.97;87.69
39773;BME280;25451;51.960;6.250;2023-11-21T11:15:01;101553.66;;;10.99;87.87
39773;BME280;25451;51.960;6.250;2023-11-21T11:17:27;101570.34;;;11.04;87.98
39773;BME280;25451;51.960;6.250;2023-11-21T11:19:53;101569.53;;;11.03;87.62
39773;BME280;25451;51.960;6.250;2023-11-21T11:22:31;101577.34;;;11.06;87.81
39773;BME280;25451;51.960;6.250;2023-11-21T11:28:03;101585.19;;;11.09;87.90
39773;BME280;25451;51.960;6.250;2023-11-21T11:33:42;101597.06;;;11.10;87.96
39773;BME280;25451;51.960;6.250;2023-11-21T11:36:24;101600.06;;;11.08;87.88
39773;BME280;25451;51.960;6.250;2023-11-21T11:38:51;101603.69;;;11.09;87.89
39773;BME280;25451;51.960;6.250;2023-11-21T11:41:27;101597.31;;;11.08;87.79
39773;BME280;25451;51.960;6.250;2023-11-21T11:43:55;101607.50;;;11.08;87.97
39773;BME280;25451;51.960;6.250;2023-11-21T11:46:20;101613.88;;;11.08;87.75
39773;BME280;25451;51.960;6.250;2023-11-21T11:48:49;101610.25;;;11.08;87.91
39773;BME280;25451;51.960;6.250;2023-11-21T11:51:28;101614.13;;;11.07;88.13
39773;BME280;25451;51.960;6.250;2023-11-21T11:53:53;101616.03;;;11.06;88.27
39773;BME280;25451;51.960;6.250;2023-11-21T11:58:48;101619.41;;;11.08;87.91
39773;BME280;25451;51.960;6.250;2023-11-21T12:01:17;101638.75;;;11.08;88.31
39773;BME280;25451;51.960;6.250;2023-11-21T12:03:44;101635.38;;;11.06;88.14
39773;BME280;25451;51.960;6.250;2023-11-21T12:06:09;101646.19;;;11.08;88.17
39773;BME280;25451;51.960;6.250;2023-11-21T12:08:37;101647.03;;;11.08;88.07
39773;BME280;25451;51.960;6.250;2023-11-21T12:11:02;101647.50;;;11.05;87.99
39773;BME280;25451;51.960;6.250;2023-11-21T12:13:28;101646.41;;;11.06;88.29
39773;BME280;25451;51.960;6.250;2023-11-21T12:15:53;101653.03;;;11.05;88.39
39773;BME280;25451;51.960;6.250;2023-11-21T12:18:20;101647.94;;;11.02;88.05
39773;BME280;25451;51.960;6.250;2023-11-21T12:20:46;101647.94;;;11.02;88.34
39773;BME280;25451;51.960;6.250;2023-11-21T12:23:13;101649.47;;;10.98;88.27
39773;BME280;25451;51.960;6.250;2023-11-21T12:25:41;101652.84;;;11.00;88.50
39773;BME280;25451;51.960;6.250;2023-11-21T12:28:07;101648.41;;;10.99;88.16
39773;BME280;25451;51.960;6.250;2023-11-21T12:30:34;101656.47;;;11.01;88.17
39773;BME280;25451;51.960;6.250;2023-11-21T12:33:01;101656.47;;;11.01;88.36
39773;BME280;25451;51.960;6.250;2023-11-21T12:35:32;101668.38;;;11.01;88.73
39773;BME280;25451;51.960;6.250;2023-11-21T12:37:59;101668.38;;;11.01;88.33
39773;BME280;25451;51.960;6.250;2023-11-21T12:40:26;101673.66;;;11.03;88.44
39773;BME280;25451;51.960;6.250;2023-11-21T12:42:53;101688.31;;;11.03;88.26
39773;BME280;25451;51.960;6.250;2023-11-21T12:45:24;101688.53;;;11.02;88.22
39773;BME280;25451;51.960;6.250;2023-11-21T12:50:25;101699.56;;;11.02;88.22
39773;BME280;25451;51.960;6.250;2023-11-21T12:52:57;101701.94;;;10.98;88.23
39773;BME280;25451;51.960;6.250;2023-11-21T12:55:23;101706.19;;;11.01;88.43
39773;BME280;25451;51.960;6.250;2023-11-21T12:57:50;101705.34;;;11.00;88.47
39773;BME280;25451;51.960;6.250;2023-11-21T13:00:31;101697.53;;;10.97;88.48
39773;BME280;25451;51.960;6.250;2023-11-21T13:02:58;101701.56;;;10.95;88.30
39773;BME280;25451;51.960;6.250;2023-11-21T13:05:31;101702.44;;;10.95;88.15